Latest Weather Observations for Burketown Airport

IDQ60801

Issued at 10:02 pm EST Tuesday 27 January 2015 (issued every 30 minutes, with the page automatically refreshed every 10 minutes)

About weather observations | Map of weather stations | Latest weather observations for QLD | Other Formats
Station Details ID: 029077 Name: BURKETOWN AIRPORT Lat: -17.75 Lon: 139.54 Height: 5.7 m
Data from the previous 72 hours. | See also: Recent months at Burketown Airport
Date/Time
EST
Temp
°C
App
Temp
°C
Dew
Point
Rel
Hum
%
Delta-T
°C
Wind Press
QNH
hPa
Press
MSL
hPa
Rain
since 9 am
mm
Dir
 
Spd
km/h
Gust
km/h
Spd
kts
Gust
kts
27/10:00pm 28.2 34.1 26.8 92 1.0 NNE 9 11 5 6 1003.8 - 0.0
27/09:30pm 28.6 34.5 26.8 90 1.3 NE 9 11 5 6 1003.7 - 0.0
27/09:00pm 28.7 34.2 26.1 86 1.9 NNE 9 13 5 7 1003.6 1003.5 0.0
27/08:30pm 29.1 33.4 25.5 81 2.5 NNE 13 15 7 8 1003.2 - 0.0
27/08:00pm 29.8 33.1 25.1 76 3.3 NNE 17 20 9 11 1002.7 - 0.0
27/07:30pm 30.3 33.5 24.4 70 4.1 NE 15 20 8 11 1002.4 - 0.0
27/07:00pm 31.7 34.3 24.6 66 5.0 NNE 19 24 10 13 1002.1 - 0.0
27/06:30pm 33.4 36.4 24.0 58 6.6 ENE 15 20 8 11 1001.6 - 0.0
27/06:00pm 36.4 37.1 17.0 31 12.5 WSW 9 13 5 7 1001.4 1001.3 0.0
27/05:30pm 37.0 39.1 19.0 34 11.9 SW 6 11 3 6 1001.4 - 0.0
27/05:00pm 36.5 37.9 18.6 35 11.8 SW 9 13 5 7 1001.2 - 0.0
27/04:30pm 36.3 36.4 17.4 32 12.2 SSW 13 17 7 9 1001.3 - 0.0
27/04:00pm 36.3 36.6 15.9 29 12.9 W 9 15 5 8 1001.7 - 0.0
27/03:30pm 36.2 36.8 17.8 33 12.0 WSW 11 17 6 9 1002.2 - 0.0
27/03:00pm 35.7 36.7 16.4 31 12.3 S 6 7 3 4 1002.4 1002.3 0.0
27/02:30pm 35.5 34.9 14.7 28 12.9 ESE 11 19 6 10 1002.5 - 0.0
27/02:00pm 34.9 37.7 21.5 45 9.1 SW 9 19 5 10 1003.0 - 0.0
27/01:30pm 34.7 35.9 19.9 42 9.8 S 13 20 7 11 1003.5 - 0.0
27/01:00pm 34.5 36.4 19.7 41 9.8 SSE 9 15 5 8 1004.0 - 0.0
27/12:30pm 34.0 35.7 19.3 42 9.7 S 9 15 5 8 1004.7 - 0.0
27/12:00pm 33.2 38.3 24.7 61 6.0 WNW 6 13 3 7 1005.1 1005.0 0.0
27/11:30am 32.3 37.0 24.3 62 5.6 WNW 7 11 4 6 1005.4 - 0.0
27/11:00am 31.9 37.2 25.2 67 4.7 S 7 11 4 6 1005.9 - 0.0
27/10:30am 31.0 35.7 24.9 70 4.3 SSW 9 11 5 6 1006.3 - 0.0
27/10:00am 30.5 35.6 24.9 72 3.9 S 7 11 4 6 1006.1 - 0.0
27/09:30am 29.7 34.3 25.4 78 3.0 S 11 13 6 7 1006.0 - 0.0
27/09:00am 28.7 32.7 25.1 81 2.5 SSW 13 19 7 10 1006.1 1006.0 24.8
27/08:30am 27.7 31.1 24.7 84 2.1 S 15 17 8 9 1006.1 - 24.8
27/08:00am 26.5 29.7 24.3 88 1.5 S 15 17 8 9 1005.8 - 24.8
27/07:30am 25.5 28.8 24.5 94 0.7 SSE 15 20 8 11 1005.6 - 24.8
27/07:00am 24.8 29.0 24.8 100 0.0 SSE 11 15 6 8 1005.7 - 24.6
27/06:30am 24.8 29.0 24.8 100 0.0 SSE 11 13 6 7 1005.3 - 24.6
27/06:00am 25.0 29.6 24.8 99 0.1 SSE 9 13 5 7 1004.9 1004.8 24.6
27/05:30am 25.3 30.5 25.1 99 0.1 S 7 11 4 6 1004.9 - 24.6
27/05:00am 25.3 29.7 25.1 99 0.1 S 11 13 6 7 1004.8 - 24.6
27/04:30am 25.6 30.2 25.4 99 0.1 S 11 13 6 7 1005.1 - 24.6
27/04:00am 25.8 30.2 25.6 99 0.1 S 13 19 7 10 1005.2 - 24.6
27/03:30am 26.1 29.9 25.9 99 0.1 S 17 22 9 12 1005.0 - 24.6
27/03:00am 26.6 31.0 26.3 98 0.2 SSW 15 20 8 11 1004.7 1004.6 24.6
27/02:30am 26.6 32.4 26.1 97 0.4 N 7 9 4 5 1004.2 - 24.6
27/02:00am 26.3 31.0 25.6 96 0.5 NNW 11 13 6 7 1004.6 - 24.6
27/01:30am 26.1 31.0 25.2 95 0.6 NNW 9 11 5 6 1004.8 - 24.6
27/01:00am 26.3 31.1 25.1 93 0.8 N 9 11 5 6 1005.2 - 24.6
27/12:30am 26.8 30.2 24.6 88 1.5 N 15 19 8 10 1005.5 - 24.6
27/12:00am 26.8 31.4 25.9 95 0.6 NNE 13 15 7 8 1006.1 1006.0 24.6
 
Date/Time
EST
Temp
°C
App
Temp
°C
Dew
Point
Rel
Hum
%
Delta-T
°C
Wind Press
QNH
hPa
Press
MSL
hPa
Rain
since 9 am
mm
Dir
 
Spd
km/h
Gust
km/h
Spd
kts
Gust
kts
26/11:30pm 26.2 30.8 25.3 95 0.6 NNE 11 13 6 7 1006.1 - 24.6
26/11:00pm 25.7 29.8 24.5 93 0.8 NNE 11 15 6 8 1006.6 - 24.6
26/10:30pm 25.9 28.3 23.6 87 1.6 E 17 22 9 12 1007.1 - 24.6
26/10:00pm 26.8 28.5 24.1 85 1.9 ESE 22 32 12 17 1007.7 - 24.4
26/09:30pm 27.0 30.0 24.6 87 1.7 ENE 17 22 9 12 1006.6 - 24.4
26/09:00pm 27.0 30.2 25.0 89 1.4 ENE 17 24 9 13 1006.0 1005.9 24.4
26/08:30pm 27.1 31.0 24.9 88 1.5 E 13 20 7 11 1005.8 - 24.4
26/08:00pm 27.0 31.6 25.9 94 0.8 E 13 19 7 10 1005.5 - 24.4
26/07:30pm 26.9 31.0 26.4 97 0.4 ENE 17 22 9 12 1004.8 - 24.4
26/07:00pm 26.0 30.3 25.5 97 0.4 E 13 15 7 8 1004.7 - 24.4
26/06:30pm 25.8 32.0 25.8 100 0.0 NE 4 7 2 4 1004.4 - 24.4
26/06:00pm 25.2 30.9 25.0 99 0.1 W 4 7 2 4 1004.0 1003.9 24.4
26/05:30pm 24.4 27.7 23.9 97 0.3 SW 13 20 7 11 1004.5 - 24.2
26/05:00pm 25.7 29.4 25.2 97 0.3 ESE 15 35 8 19 1004.2 - 7.6
26/04:56pm 24.5 24.6 23.3 93 0.8 S 28 35 15 19 1004.3 - 3.2
26/04:30pm 29.5 31.0 22.7 67 4.6 ESE 19 28 10 15 1004.1 - 0.0
26/04:00pm 31.8 33.9 25.4 69 4.5 NNE 24 33 13 18 1004.0 - 0.0
26/03:30pm 32.7 35.4 24.7 62 5.6 NNE 19 24 10 13 1003.8 - 0.0
26/03:00pm 34.1 37.0 23.1 52 7.6 N 13 17 7 9 1004.0 1003.9 0.0
26/02:30pm 34.8 39.4 23.8 53 7.7 ESE 6 11 3 6 1004.4 - 0.0
26/02:00pm 35.5 39.5 23.1 48 8.6 SSW 7 13 4 7 1004.6 - 0.0
26/01:30pm 35.4 39.5 23.0 48 8.6 S 6 15 3 8 1005.1 - 0.0
26/01:00pm 34.4 36.7 22.8 51 8.0 SSW 15 20 8 11 1005.1 - 0.0
26/12:30pm 33.8 38.4 24.1 57 6.8 ESE 7 13 4 7 1005.3 - 0.0
26/12:00pm 33.4 37.0 23.1 54 7.1 SSW 9 15 5 8 1006.2 1006.1 0.0
26/11:30am 33.0 37.1 23.9 59 6.3 S 9 13 5 7 1006.7 - 0.0
26/11:00am 32.5 35.8 22.6 56 6.8 WNW 9 13 5 7 1007.2 - 0.0
26/10:30am 31.8 36.3 23.9 63 5.5 SSW 7 13 4 7 1007.8 - 0.0
26/10:00am 30.4 34.5 24.5 70 4.1 SSE 11 15 6 8 1007.9 - 0.0
26/09:30am 29.0 32.6 24.3 76 3.3 S 13 17 7 9 1008.5 - 0.0
26/09:00am 29.0 32.7 23.9 74 3.5 S 11 17 6 9 1008.6 1008.5 2.6
26/08:30am 28.7 32.4 25.1 81 2.5 S 15 19 8 10 1008.3 - 2.6
26/08:00am 26.5 30.4 24.9 91 1.1 S 13 19 7 10 1008.1 - 2.6
26/07:30am 26.0 29.6 25.0 94 0.7 SSW 15 19 8 10 1008.1 - 2.6
26/07:00am 25.8 28.4 24.9 95 0.6 SSW 20 26 11 14 1007.9 - 2.6
26/06:30am 25.9 30.0 25.2 96 0.5 SSW 13 17 7 9 1007.1 - 2.6
26/06:00am 26.3 32.1 25.1 93 0.8 W 4 6 2 3 1006.2 1006.1 2.6
26/05:30am 26.2 30.1 24.8 92 1.0 NNE 13 17 7 9 1005.3 - 2.6
26/05:00am 25.7 30.1 25.0 96 0.5 NNE 11 15 6 8 1004.6 - 2.6
26/04:30am 25.3 29.4 24.6 96 0.5 NNE 11 13 6 7 1004.4 - 2.6
26/04:00am 25.5 29.0 24.8 96 0.5 NNE 15 20 8 11 1004.3 - 2.6
26/03:30am 25.3 29.2 24.8 97 0.3 N 13 15 7 8 1004.3 - 2.6
26/03:00am 25.3 30.4 25.0 98 0.2 N 7 9 4 5 1004.8 1004.7 2.6
26/02:30am 25.3 30.2 24.6 96 0.5 W 7 9 4 5 1004.7 - 2.6
26/02:00am 25.4 30.3 24.7 96 0.5 WSW 7 9 4 5 1005.2 - 2.6
26/01:30am 25.6 30.0 24.4 93 0.8 WSW 9 11 5 6 1006.2 - 2.6
26/01:00am 26.0 29.6 24.4 91 1.1 S 13 15 7 8 1007.0 - 2.6
26/12:30am 26.1 29.8 24.5 91 1.1 SE 13 17 7 9 1008.1 - 2.6
26/12:00am 26.1 30.0 24.9 93 0.8 S 13 20 7 11 1008.6 1008.5 2.6
 
Date/Time
EST
Temp
°C
App
Temp
°C
Dew
Point
Rel
Hum
%
Delta-T
°C
Wind Press
QNH
hPa
Press
MSL
hPa
Rain
since 9 am
mm
Dir
 
Spd
km/h
Gust
km/h
Spd
kts
Gust
kts
25/11:30pm 26.0 28.0 25.1 95 0.6 S 24 35 13 19 1009.1 - 2.6
25/11:15pm 25.4 25.5 24.9 97 0.3 S 33 52 18 28 1009.0 - 2.6
25/11:10pm 25.8 26.7 25.8 100 0.0 S 32 43 17 23 1008.9 - 2.6
25/11:00pm 25.6 30.6 25.4 99 0.1 N 9 13 5 7 1006.9 - 2.6
25/10:30pm 25.7 30.3 25.4 98 0.2 S 11 15 6 8 1007.2 - 2.6
25/10:00pm 25.6 30.9 25.3 98 0.2 NW 7 9 4 5 1006.9 - 2.6
25/09:30pm 25.8 31.3 25.6 99 0.1 NNW 7 11 4 6 1006.4 - 2.6
25/09:00pm 25.5 30.4 25.2 98 0.2 NNW 9 13 5 7 1006.3 1006.2 2.6
25/08:30pm 25.5 29.9 25.0 97 0.3 SW 11 13 6 7 1006.9 - 2.6
25/08:00pm 26.0 31.1 25.5 97 0.4 W 9 11 5 6 1007.1 - 2.6
25/07:30pm 26.0 31.3 25.3 96 0.5 W 7 9 4 5 1006.7 - 2.2
25/07:00pm 25.9 31.0 24.9 94 0.7 NW 7 9 4 5 1005.6 - 2.2
25/06:30pm 25.5 30.8 23.7 90 1.2 WSW 2 6 1 3 1005.2 - 2.0
25/06:00pm 25.9 29.5 23.8 88 1.4 SSW 11 15 6 8 1005.0 1004.9 1.4
25/05:30pm 26.4 31.1 23.9 86 1.7 NNW 6 9 3 5 1004.6 - 1.4
25/05:00pm 25.8 28.6 23.7 88 1.4 N 15 19 8 10 1003.9 - 1.4
25/04:30pm 25.9 27.1 23.8 88 1.4 NW 24 39 13 21 1005.0 - 1.4
25/04:16pm 26.7 28.2 25.5 93 0.8 WNW 28 41 15 22 1005.4 - 1.4
25/04:00pm 27.4 31.5 24.5 84 2.0 N 11 13 6 7 1005.1 - 1.4
25/03:30pm 26.7 29.2 22.5 78 2.8 NNE 13 20 7 11 1005.4 - 1.4
25/03:25pm 26.7 30.0 23.2 81 2.4 N 11 20 6 11 1005.6 - 1.0
25/03:00pm 31.7 33.4 25.3 69 4.5 NNE 26 33 14 18 1005.4 1005.3 0.0
25/02:30pm 32.5 34.6 25.3 66 5.1 NNE 24 33 13 18 1004.9 - 0.0
25/02:00pm 35.0 38.5 26.9 63 5.9 NNE 22 32 12 17 1005.4 - 0.0
25/01:30pm 34.8 38.9 27.2 64 5.5 NNE 20 30 11 16 1005.8 - 0.0
25/01:00pm 34.6 38.1 26.0 61 6.2 NNE 19 24 10 13 1006.5 - 0.0
25/12:30pm 34.3 38.0 25.7 61 6.1 N 17 22 9 12 1007.1 - 0.0
25/12:00pm 33.4 37.3 24.3 59 6.4 NNW 11 17 6 9 1007.5 1007.4 0.0
25/11:30am 33.3 37.4 25.8 65 5.4 NNW 15 26 8 14 1007.9 - 0.0
25/11:00am 33.3 36.7 26.1 66 5.2 NW 20 26 11 14 1008.1 - 0.0
25/10:30am 33.4 37.7 26.7 68 4.8 N 17 20 9 11 1008.3 - 0.0
25/10:00am 32.8 37.1 26.6 70 4.5 NNW 17 22 9 12 1008.4 - 0.0
25/09:30am 31.2 35.2 26.2 75 3.6 NNW 17 22 9 12 1008.5 - 0.0
25/09:00am 30.5 36.1 26.9 81 2.6 NNW 11 15 6 8 1008.3 1008.2 0.0
25/08:30am 29.6 35.4 26.6 84 2.1 N 9 15 5 8 1008.3 - 0.0
25/08:00am 29.1 35.5 26.9 88 1.6 N 7 9 4 5 1008.1 - 0.0
25/07:30am 28.2 34.5 26.8 92 1.0 N 7 11 4 6 1007.7 - 0.0
25/07:00am 27.8 34.6 26.7 94 0.8 ENE 4 6 2 3 1007.5 - 0.0
25/06:30am 27.2 34.3 26.0 93 0.8 CALM 0 0 0 0 1006.9 - 0.0
25/06:00am 27.0 34.0 25.9 94 0.8 CALM 0 0 0 0 1006.5 1006.4 0.0
25/05:30am 26.9 32.9 26.0 95 0.6 N 6 7 3 4 1006.0 - 0.0
25/05:00am 26.9 32.7 26.0 95 0.6 N 7 9 4 5 1005.8 - 0.0
25/04:30am 27.2 33.0 26.1 94 0.8 N 7 7 4 4 1005.8 - 0.0
25/04:00am 27.3 33.2 26.2 94 0.8 N 7 9 4 5 1005.8 - 0.0
25/03:30am 27.3 33.1 26.1 93 0.8 N 7 9 4 5 1005.7 - 0.0
25/03:00am 27.5 32.6 26.1 92 1.0 N 11 15 6 8 1005.7 1005.6 0.0
25/02:30am 27.2 32.7 26.1 94 0.8 N 9 11 5 6 1005.7 - 0.0
25/02:00am 27.3 32.6 25.9 92 1.0 N 9 11 5 6 1006.1 - 0.0
25/01:30am 27.5 32.4 25.9 91 1.1 N 11 11 6 6 1006.5 - 0.0
25/01:00am 27.7 32.4 25.5 88 1.5 N 11 13 6 7 1006.9 - 0.0
25/12:30am 27.8 32.0 25.4 87 1.7 N 13 15 7 8 1007.1 - 0.0
25/12:00am 27.9 31.8 25.5 87 1.7 N 15 19 8 10 1007.0 1006.9 0.0
 
Date/Time
EST
Temp
°C
App
Temp
°C
Dew
Point
Rel
Hum
%
Delta-T
°C
Wind Press
QNH
hPa
Press
MSL
hPa
Rain
since 9 am
mm
Dir
 
Spd
km/h
Gust
km/h
Spd
kts
Gust
kts
24/11:30pm 28.1 31.4 25.1 84 2.1 N 17 20 9 11 1007.1 - 0.0
24/11:00pm 28.2 31.2 25.2 84 2.1 N 19 24 10 13 1007.2 - 0.0
24/10:30pm 28.2 31.8 25.0 83 2.2 N 15 19 8 10 1007.3 - 0.0

Other Formats:

Comma delimited format used in spreadsheet applications
http://www.bom.gov.au/fwo/IDQ60801/IDQ60801.94260.axf

JavaScript Object Notation format (JSON) in row-major order
http://www.bom.gov.au/fwo/IDQ60801/IDQ60801.94260.json